York, NE

10:54 AM CDT on June 28, 2017 (GMT -0500)
York Municipal

Weather History for KJYR - October, 2013

Change the Weather History Date:

Wednesday, October 16, 2013

  Actual Average Record
Temperature  
Mean Temperature 45 °F -  
Max Temperature 55 °F 65 °F 83 °F (1961)
Min Temperature 35 °F 39 °F 26 °F (2004)
Degree Days  
Heating Degree Days 20    
Moisture  
Dew Point 34 °F    
Average Humidity 68    
Maximum Humidity 100    
Minimum Humidity 25    
Precipitation  
Precipitation 0.00 in - - ()
Sea Level Pressure  
Sea Level Pressure 30.05 in    
Wind  
Wind Speed 10 mph (WNW)    
Max Wind Speed 15 mph    
Max Gust Speed 20 mph    
Visibility 10 miles    
Events      
Averages and records for this station are not official NWS values.
T = Trace of Precipitation, MM = Missing Value Source: NWS Daily Summary

Daily Weather History Graph

Daily Weather History Graph

Search for Another Location

Airport or City:

Trip Planner

Search our weather history database for the weather conditions in past years. The results will help you decide how hot, cold, wet, or windy it might be!

Date:

Astronomy

Oct. 16, 2013 Rise Set
Actual Time 7:43 AM CDT 6:48 PM CDT
Civil Twilight 7:15 AM CDT 7:15 PM CDT
Nautical Twilight 6:43 AM CDT 7:47 PM CDT
Astronomical Twilight 6:11 AM CDT 8:19 PM CDT
Moon 5:29 PM CDT (10/16) 5:11 AM CDT (10/16)
Length of Visible Light 12h 00m
Length of Day
11h 04m
Waxing Gibbous, 94% of the Moon is Illuminated
Oct 16
Waxing Gibbous
Oct 18
Full
Oct 26
Last Quarter
Nov 3
New
Nov 9
First Quarter

Hourly Weather History & Observations

Time (CDT) Temp. Windchill Dew Point Humidity Pressure Visibility Wind Dir Wind Speed Gust Speed Precip Events Conditions
12:15 AM 42.8 °F 36.2 °F 37.4 °F 81% 30.12 in 10.0 mi NW 12.7 mph - N/A   Overcast
12:35 AM 42.8 °F 36.2 °F 37.4 °F 81% 30.12 in 10.0 mi NW 12.7 mph - N/A   Overcast
12:55 AM 42.8 °F 35.4 °F 37.4 °F 81% 30.12 in 10.0 mi NW 15.0 mph 19.6 mph N/A   Overcast
1:15 AM 42.8 °F 35.8 °F 37.4 °F 81% 30.12 in 10.0 mi NW 13.8 mph - N/A   Mostly Cloudy
1:35 AM 42.8 °F 37.0 °F 37.4 °F 81% 30.12 in 10.0 mi NW 10.4 mph - N/A   Mostly Cloudy
1:55 AM 42.8 °F 37.0 °F 37.4 °F 81% 30.13 in 10.0 mi WNW 10.4 mph - N/A   Overcast
2:15 AM 42.8 °F 36.2 °F 37.4 °F 81% 30.12 in 10.0 mi NW 12.7 mph - N/A   Overcast
2:35 AM 42.8 °F 36.2 °F 37.4 °F 81% 30.12 in 10.0 mi NW 12.7 mph - N/A   Overcast
2:55 AM 41.0 °F 34.7 °F 37.4 °F 87% 30.12 in 10.0 mi NW 10.4 mph - N/A   Overcast
3:15 AM 41.0 °F 34.7 °F 37.4 °F 87% 30.11 in 10.0 mi WNW 10.4 mph - N/A   Overcast
3:35 AM 39.2 °F 33.0 °F 35.6 °F 87% 30.11 in 10.0 mi WNW 9.2 mph - N/A   Scattered Clouds
3:55 AM 39.2 °F 33.6 °F 35.6 °F 87% 30.10 in 10.0 mi WNW 8.1 mph - N/A   Clear
4:15 AM 39.2 °F 33.0 °F 35.6 °F 87% 30.09 in 10.0 mi NW 9.2 mph - N/A   Clear
4:35 AM 37.4 °F 30.3 °F 35.6 °F 93% 30.09 in 10.0 mi NW 10.4 mph - N/A   Clear
4:55 AM 37.4 °F 31.4 °F 35.6 °F 93% 30.08 in 10.0 mi NW 8.1 mph - N/A   Clear
5:15 AM 37.4 °F 32.1 °F 35.6 °F 93% 30.09 in 10.0 mi WNW 6.9 mph - N/A   Clear
5:35 AM 35.6 °F 29.2 °F 33.8 °F 93% 30.10 in 10.0 mi West 8.1 mph - N/A   Clear
5:55 AM 35.6 °F 29.2 °F 33.8 °F 93% 30.11 in 10.0 mi West 8.1 mph - N/A   Clear
6:15 AM 35.6 °F 28.6 °F 33.8 °F 93% 30.11 in 10.0 mi West 9.2 mph - N/A   Clear
6:35 AM 35.6 °F 29.2 °F 35.6 °F 100% 30.10 in 10.0 mi West 8.1 mph - N/A   Mostly Cloudy
6:55 AM 37.4 °F 30.8 °F 35.6 °F 93% 30.10 in 10.0 mi WNW 9.2 mph - N/A   Overcast
7:15 AM 37.4 °F 30.3 °F 35.6 °F 93% 30.10 in 10.0 mi WNW 10.4 mph - N/A   Overcast
7:35 AM 37.4 °F 30.3 °F 35.6 °F 93% 30.10 in 10.0 mi NW 10.4 mph - N/A   Overcast
7:55 AM 37.4 °F 29.8 °F 35.6 °F 93% 30.10 in 10.0 mi WNW 11.5 mph - N/A   Overcast
8:15 AM 39.2 °F 32.5 °F 35.6 °F 87% 30.10 in 10.0 mi NW 10.4 mph - N/A   Overcast
8:35 AM 39.2 °F 33.0 °F 37.4 °F 93% 30.10 in 10.0 mi NW 9.2 mph - N/A   Mostly Cloudy
8:55 AM 41.0 °F 34.3 °F 37.4 °F 87% 30.11 in 10.0 mi NW 11.5 mph - N/A   Mostly Cloudy
9:15 AM 41.0 °F 34.3 °F 37.4 °F 87% 30.11 in 10.0 mi NW 11.5 mph - N/A   Overcast
9:35 AM 42.8 °F 36.6 °F 37.4 °F 81% 30.11 in 10.0 mi NW 11.5 mph - N/A   Overcast
9:55 AM 44.6 °F 38.4 °F 37.4 °F 76% 30.11 in 10.0 mi NW 12.7 mph - N/A   Overcast
10:15 AM 44.6 °F 39.7 °F 37.4 °F 76% 30.11 in 10.0 mi NW 9.2 mph - N/A   Mostly Cloudy
10:35 AM 48.2 °F - 37.4 °F 66% 30.10 in 10.0 mi NW 13.8 mph - N/A   Scattered Clouds
10:55 AM 48.2 °F - 35.6 °F 62% 30.10 in 10.0 mi NW 13.8 mph - N/A   Mostly Cloudy
11:15 AM 48.2 °F - 35.6 °F 62% 30.10 in 10.0 mi NNW 12.7 mph 18.4 mph N/A   Overcast
11:35 AM 50.0 °F - 35.6 °F 58% 30.10 in 10.0 mi NW 12.7 mph 16.1 mph N/A   Partly Cloudy
11:55 AM 50.0 °F - 35.6 °F 58% 30.09 in 10.0 mi NW 11.5 mph 16.1 mph N/A   Clear
12:15 PM 51.8 °F - 32.0 °F 47% 30.09 in 10.0 mi WNW 11.5 mph - N/A   Clear
12:35 PM 51.8 °F - 32.0 °F 47% 30.08 in 10.0 mi North 8.1 mph 18.4 mph N/A   Clear
12:55 PM 51.8 °F - 32.0 °F 47% 30.07 in 10.0 mi NW 6.9 mph - N/A   Clear
1:15 PM 51.8 °F - 32.0 °F 47% 30.07 in 10.0 mi NNW 8.1 mph - N/A   Clear
1:35 PM 53.6 °F - 32.0 °F 44% 30.06 in 10.0 mi NNW 9.2 mph - N/A   Clear
1:55 PM 53.6 °F - 32.0 °F 44% 30.05 in 10.0 mi NNW 8.1 mph - N/A   Clear
2:15 PM 53.6 °F - 32.0 °F 44% 30.04 in 10.0 mi North 5.8 mph - N/A   Clear
2:35 PM 53.6 °F - 32.0 °F 44% 30.03 in 10.0 mi NW 9.2 mph - N/A   Clear
2:55 PM 53.6 °F - 28.4 °F 38% 30.02 in 10.0 mi NNW 9.2 mph - N/A   Clear
3:15 PM 53.6 °F - 30.2 °F 41% 30.01 in 10.0 mi NW 6.9 mph - N/A   Clear
3:35 PM 53.6 °F - 30.2 °F 41% 30.01 in 10.0 mi NNW 4.6 mph - N/A   Clear
3:55 PM 53.6 °F - 26.6 °F 35% 30.01 in 10.0 mi North 4.6 mph - N/A   Scattered Clouds
4:15 PM 53.6 °F - 21.2 °F 28% 30.00 in 10.0 mi NW 8.1 mph - N/A   Mostly Cloudy
4:35 PM 53.6 °F - 24.8 °F 33% 30.00 in 10.0 mi NW 5.8 mph - N/A   Scattered Clouds
4:55 PM 55.4 °F - 24.8 °F 31% 29.99 in 10.0 mi NW 6.9 mph - N/A   Scattered Clouds
5:15 PM 55.4 °F - 19.4 °F 25% 29.99 in 10.0 mi WNW 6.9 mph - N/A   Partly Cloudy
5:35 PM 55.4 °F - 26.6 °F 33% 29.99 in 10.0 mi NW 8.1 mph - N/A   Clear
5:55 PM 53.6 °F - 28.4 °F 38% 29.99 in 10.0 mi NW 4.6 mph - N/A   Clear
6:15 PM 53.6 °F - 32.0 °F 44% 29.98 in 10.0 mi NW 3.5 mph - N/A   Clear
6:35 PM 50.0 °F - 33.8 °F 54% 29.98 in 10.0 mi NW 3.5 mph - N/A   Clear
6:55 PM 48.2 °F - 35.6 °F 62% 29.98 in 10.0 mi Calm Calm - N/A   Clear
7:15 PM 48.2 °F - 33.8 °F 58% 29.98 in 10.0 mi Calm Calm - N/A   Clear
7:35 PM 48.2 °F - 32.0 °F 54% 29.98 in 10.0 mi Calm Calm - N/A   Clear
7:55 PM 44.6 °F - 33.8 °F 66% 29.98 in 10.0 mi Calm Calm - N/A   Clear
8:15 PM 46.4 °F - 35.6 °F 66% 29.98 in 10.0 mi Calm Calm - N/A   Clear
8:35 PM 46.4 °F - 33.8 °F 62% 29.98 in 10.0 mi North - - N/A   Clear
8:55 PM 44.6 °F 42.2 °F 33.8 °F 66% 29.98 in 10.0 mi SSE 4.6 mph - N/A   Clear
9:15 PM 42.8 °F 39.3 °F 33.8 °F 70% 29.97 in 10.0 mi SSE 5.8 mph - N/A   Clear
9:35 PM 42.8 °F 38.6 °F 32.0 °F 66% 29.97 in 10.0 mi South 6.9 mph - N/A   Clear
9:55 PM 41.0 °F 36.4 °F 32.0 °F 70% 29.97 in 10.0 mi South 6.9 mph - N/A   Clear
10:15 PM 41.0 °F 36.4 °F 32.0 °F 70% 29.97 in 10.0 mi South 6.9 mph - N/A   Clear
10:35 PM 41.0 °F 36.4 °F 32.0 °F 70% 29.97 in 10.0 mi SSW 6.9 mph - N/A   Clear
10:55 PM 41.0 °F 36.4 °F 32.0 °F 70% 29.97 in 10.0 mi SSW 6.9 mph - N/A   Clear
11:15 PM 41.0 °F 35.8 °F 32.0 °F 70% 29.97 in 10.0 mi SSW 8.1 mph - N/A   Clear
11:35 PM 39.2 °F 35.0 °F 32.0 °F 75% 29.97 in 10.0 mi SSW 5.8 mph - N/A   Clear
11:55 PM 39.2 °F 35.0 °F 32.0 °F 75% 29.96 in 10.0 mi SSW 5.8 mph - N/A   Clear